Terminal Aerodrome Forecast
Issued by NWS

Home | Current Version | Previous Version | Text Only | Print | Product List | Glossary On
Versions: 1 2 3 4 5 6 7 8 9 10 11 12 13 14 15 16 17 18 19 20 21
673
FTUS41 KCAR 200744 AAA
TAFHUL
TAF AMD
KHUL 200744Z 2008/2106 19004KT 1SM BR OVC003
      TEMPO 2008/2010 -RA
     FM201100 VRB03KT 5SM -RASN OVC009
     FM201900 08006KT 3SM -RA BR OVC007=

USA.gov is the U.S. government's official web portal to all federal, state and local government web resources and services.